createdAt,value
2022-08-30T00:01:24.870Z,96.40
2022-08-30T00:03:54.968Z,96.40
2022-08-30T00:06:23.609Z,96.40
2022-08-30T00:08:51.969Z,96.40
2022-08-30T00:11:23.190Z,96.40
2022-08-30T00:13:52.362Z,96.40
2022-08-30T00:16:21.570Z,96.40
2022-08-30T00:18:49.920Z,96.40
2022-08-30T00:21:18.282Z,96.40
2022-08-30T00:23:46.600Z,96.40
2022-08-30T00:26:14.910Z,96.40
2022-08-30T00:28:44.546Z,96.40
2022-08-30T00:31:14.925Z,96.40
2022-08-30T00:33:44.015Z,96.40
2022-08-30T00:36:12.286Z,96.40
2022-08-30T00:38:40.582Z,96.30
2022-08-30T00:41:08.875Z,96.30
2022-08-30T00:43:37.327Z,96.30
2022-08-30T00:46:10.313Z,96.30
2022-08-30T00:48:40.901Z,96.40
2022-08-30T00:51:10.494Z,96.30
2022-08-30T00:53:39.953Z,96.30
2022-08-30T00:56:08.220Z,96.30
2022-08-30T00:58:37.860Z,96.30
2022-08-30T01:01:08.048Z,96.30
2022-08-30T01:03:36.750Z,96.40
2022-08-30T01:06:05.215Z,96.30
2022-08-30T01:08:33.556Z,96.30
2022-08-30T01:11:01.863Z,96.40
2022-08-30T01:13:30.188Z,96.30
2022-08-30T01:15:59.864Z,96.40
2022-08-30T01:18:29.703Z,96.30
2022-08-30T01:21:02.624Z,96.30
2022-08-30T01:23:32.484Z,96.30
2022-08-30T01:26:00.835Z,96.30
2022-08-30T01:28:29.250Z,96.30
2022-08-30T01:30:57.591Z,96.30
2022-08-30T01:33:26.045Z,96.40
2022-08-30T01:35:57.692Z,96.30
2022-08-30T01:38:27.220Z,96.40
2022-08-30T01:40:59.639Z,96.30
2022-08-30T01:43:28.849Z,96.30
2022-08-30T01:45:57.230Z,96.30
2022-08-30T01:48:26.574Z,96.30
2022-08-30T01:50:59.776Z,96.30
2022-08-30T01:53:28.111Z,96.40
2022-08-30T01:55:56.497Z,96.40
2022-08-30T01:58:26.151Z,96.40
2022-08-30T02:00:54.528Z,96.40
2022-08-30T02:03:22.973Z,96.40
2022-08-30T02:05:51.799Z,96.40
2022-08-30T02:08:20.080Z,96.40
2022-08-30T02:10:48.350Z,96.40
2022-08-30T02:13:16.796Z,96.40
2022-08-30T02:15:46.975Z,96.70
2022-08-30T02:18:15.242Z,96.40
2022-08-30T02:20:43.611Z,96.40
2022-08-30T02:23:12.062Z,96.40
2022-08-30T02:25:41.564Z,96.40
2022-08-30T02:28:09.850Z,96.40
2022-08-30T02:30:38.492Z,96.40
2022-08-30T02:33:08.136Z,96.40
2022-08-30T02:35:36.464Z,96.40
2022-08-30T02:38:04.884Z,96.40
2022-08-30T02:40:33.312Z,96.40
2022-08-30T02:43:01.647Z,96.40
2022-08-30T02:45:29.943Z,96.40
2022-08-30T02:47:58.251Z,96.40
2022-08-30T02:50:27.888Z,96.40
2022-08-30T02:52:56.160Z,96.40
2022-08-30T02:55:24.604Z,96.40
2022-08-30T02:57:52.875Z,96.40
2022-08-30T03:00:21.285Z,96.40
2022-08-30T03:02:49.549Z,96.40
2022-08-30T03:05:18.887Z,96.40
2022-08-30T03:07:48.527Z,96.40
2022-08-30T03:10:16.968Z,96.40
2022-08-30T03:12:45.263Z,96.50
2022-08-30T03:15:13.595Z,96.50
2022-08-30T03:17:41.898Z,96.50
2022-08-30T03:20:11.070Z,96.50
2022-08-30T03:22:39.438Z,96.50
2022-08-30T03:25:09.829Z,96.50
2022-08-30T03:27:38.123Z,96.50
2022-08-30T03:30:07.585Z,96.50
2022-08-30T03:32:35.888Z,96.50
2022-08-30T03:35:04.622Z,96.50
2022-08-30T03:37:32.919Z,96.50
2022-08-30T03:40:01.253Z,96.50
2022-08-30T03:42:31.731Z,96.50
2022-08-30T03:45:02.195Z,96.50
2022-08-30T03:47:30.619Z,96.50
2022-08-30T03:49:58.941Z,96.50
2022-08-30T03:52:28.311Z,96.50
2022-08-30T03:54:56.619Z,96.50
2022-08-30T03:57:25.694Z,96.50
2022-08-30T03:59:55.360Z,96.50
2022-08-30T04:02:23.670Z,96.50
2022-08-30T04:04:52.044Z,96.50
2022-08-30T04:07:20.404Z,96.50
2022-08-30T04:09:48.724Z,96.80
2022-08-30T04:12:18.421Z,96.50
2022-08-30T04:14:51.249Z,96.50
2022-08-30T04:17:20.991Z,96.50
2022-08-30T04:19:49.302Z,96.50
2022-08-30T04:22:17.582Z,96.50
2022-08-30T04:24:45.892Z,96.50
2022-08-30T04:27:14.172Z,96.60
2022-08-30T04:29:42.504Z,96.60
2022-08-30T04:32:10.784Z,96.70
2022-08-30T04:34:40.425Z,96.60
2022-08-30T04:37:09.959Z,96.60
2022-08-30T04:39:38.707Z,96.60
2022-08-30T04:42:11.290Z,96.60
2022-08-30T04:44:39.554Z,96.50
2022-08-30T04:47:08.460Z,96.50
2022-08-30T04:49:36.816Z,96.50
2022-08-30T04:52:08.801Z,96.60
2022-08-30T04:54:37.091Z,96.50
2022-08-30T04:57:06.705Z,96.60
2022-08-30T04:59:34.989Z,96.60
2022-08-30T05:02:03.298Z,96.60
2022-08-30T05:04:31.596Z,96.60
2022-08-30T05:06:59.881Z,96.60
2022-08-30T05:09:29.553Z,96.60
2022-08-30T05:11:57.842Z,96.60
2022-08-30T05:14:26.483Z,96.60
2022-08-30T05:16:54.775Z,96.60
2022-08-30T05:19:23.619Z,96.60
2022-08-30T05:21:52.031Z,96.60
2022-08-30T05:24:20.351Z,96.60
2022-08-30T05:26:50.022Z,96.60
2022-08-30T05:29:18.369Z,96.60
2022-08-30T05:31:46.717Z,96.60
2022-08-30T05:34:15.075Z,96.60
2022-08-30T05:36:43.380Z,96.60
2022-08-30T05:39:11.671Z,96.60
2022-08-30T05:41:40.337Z,96.60
2022-08-30T05:44:10.244Z,96.60
2022-08-30T05:46:39.516Z,96.60
2022-08-30T05:49:08.481Z,96.60
2022-08-30T05:51:37.370Z,96.60
2022-08-30T05:54:11.817Z,96.60
2022-08-30T05:56:40.159Z,96.60
2022-08-30T05:59:09.828Z,96.60
2022-08-30T06:01:39.797Z,96.60
2022-08-30T06:04:09.180Z,96.60
2022-08-30T06:06:38.370Z,96.60
2022-08-30T06:09:07.304Z,96.60
2022-08-30T06:11:36.016Z,96.60
2022-08-30T06:14:04.468Z,96.60
2022-08-30T06:16:34.268Z,96.60
2022-08-30T06:19:02.876Z,96.60
2022-08-30T06:21:34.140Z,96.60
2022-08-30T06:24:02.704Z,96.60
2022-08-30T06:29:04.346Z,96.60
2022-08-30T06:31:34.079Z,97.70
2022-08-30T06:34:02.479Z,97.80
2022-08-30T06:36:30.784Z,97.80
2022-08-30T06:38:59.348Z,98.10
2022-08-30T06:41:28.505Z,98.20
2022-08-30T06:43:57.102Z,98.20
2022-08-30T06:46:26.363Z,98.20
2022-08-30T06:48:56.734Z,98.10
2022-08-30T06:51:26.262Z,98.10
2022-08-30T06:53:55.229Z,98.10
2022-08-30T06:56:23.720Z,98.00
2022-08-30T06:58:52.028Z,98.00
2022-08-30T07:01:23.047Z,98.10
2022-08-30T07:03:51.493Z,98.20
2022-08-30T07:06:21.399Z,98.30
2022-08-30T07:08:56.179Z,98.30
2022-08-30T07:11:29.749Z,98.30
2022-08-30T07:13:58.062Z,98.10
2022-08-30T07:16:26.598Z,98.10
2022-08-30T07:18:58.371Z,98.10
2022-08-30T07:21:28.982Z,98.10
2022-08-30T07:23:58.217Z,98.00
2022-08-30T07:26:27.594Z,98.00
2022-08-30T07:28:57.237Z,97.70
2022-08-30T07:31:25.539Z,97.60
2022-08-30T07:33:54.111Z,97.40
2022-08-30T07:36:22.887Z,97.60
2022-08-30T07:38:52.738Z,97.80
2022-08-30T07:41:22.006Z,97.80
2022-08-30T07:43:50.368Z,97.80
2022-08-30T07:46:18.943Z,98.00
2022-08-30T07:48:47.522Z,97.80
2022-08-30T07:51:18.610Z,97.90
2022-08-30T07:53:47.020Z,97.90
2022-08-30T07:56:17.058Z,97.80
2022-08-30T07:58:45.372Z,97.80
2022-08-30T08:01:14.067Z,97.80
2022-08-30T08:03:42.936Z,97.80
2022-08-30T08:06:12.191Z,97.70
2022-08-30T08:08:45.323Z,97.70
2022-08-30T08:11:16.517Z,97.60
2022-08-30T08:13:53.261Z,97.60
2022-08-30T08:16:23.209Z,97.60
2022-08-30T08:18:51.630Z,97.90
2022-08-30T08:21:19.953Z,97.60
2022-08-30T08:23:48.322Z,97.40
2022-08-30T08:26:16.680Z,97.40
2022-08-30T08:28:47.060Z,97.40
2022-08-30T08:31:18.628Z,97.30
2022-08-30T08:33:48.339Z,97.40
2022-08-30T08:36:16.744Z,97.40
2022-08-30T08:38:45.098Z,97.40
2022-08-30T08:41:18.578Z,97.30
2022-08-30T08:43:48.282Z,97.10
2022-08-30T08:46:20.992Z,97.00
2022-08-30T08:49:05.769Z,96.90
2022-08-30T08:51:55.404Z,96.70
2022-08-30T08:54:26.292Z,96.70
2022-08-30T08:56:54.993Z,96.70
2022-08-30T08:59:24.694Z,96.70
2022-08-30T09:01:54.201Z,96.50
2022-08-30T09:04:31.223Z,96.60
2022-08-30T09:07:01.753Z,96.60
2022-08-30T09:09:32.630Z,96.50
2022-08-30T09:12:00.925Z,96.30
2022-08-30T09:14:34.182Z,96.60
2022-08-30T09:17:03.682Z,96.70
2022-08-30T09:19:37.653Z,96.70
2022-08-30T09:22:08.324Z,96.80
2022-08-30T09:24:42.342Z,96.80
2022-08-30T09:27:25.851Z,96.80
2022-08-30T09:29:58.899Z,96.80
2022-08-30T09:32:29.758Z,95.60
2022-08-30T09:34:58.274Z,95.70
2022-08-30T09:37:31.995Z,96.00
2022-08-30T09:40:00.386Z,96.10
2022-08-30T09:42:30.052Z,96.20
2022-08-30T09:45:12.296Z,96.20
2022-08-30T09:47:44.767Z,96.20
2022-08-30T09:50:13.955Z,96.20
2022-08-30T09:52:55.326Z,96.20
2022-08-30T09:55:51.552Z,96.50
2022-08-30T09:58:33.329Z,96.10
2022-08-30T10:01:08.256Z,96.30
2022-08-30T10:03:40.669Z,96.20
2022-08-30T10:06:15.292Z,96.30
2022-08-30T10:08:51.551Z,96.20
2022-08-30T10:11:22.003Z,96.30
2022-08-30T10:14:01.367Z,96.20
2022-08-30T10:16:47.415Z,96.20
2022-08-30T10:19:21.817Z,96.30
2022-08-30T10:21:53.434Z,96.20
2022-08-30T10:24:23.825Z,96.10
2022-08-30T10:26:54.140Z,96.10
2022-08-30T10:29:25.723Z,96.20
2022-08-30T10:31:57.007Z,96.10
2022-08-30T10:34:26.678Z,96.10
2022-08-30T10:36:57.815Z,96.10
2022-08-30T10:39:27.935Z,95.90
2022-08-30T10:42:03.207Z,96.20
2022-08-30T10:44:36.904Z,94.70
2022-08-30T10:47:14.298Z,94.30
2022-08-30T10:49:54.451Z,95.20
2022-08-30T10:52:26.466Z,95.30
2022-08-30T10:54:56.642Z,95.20
2022-08-30T10:57:25.973Z,95.30
2022-08-30T10:59:55.655Z,95.30
2022-08-30T11:02:46.057Z,95.60
2022-08-30T11:05:41.943Z,94.50
2022-08-30T11:08:22.209Z,94.40
2022-08-30T11:10:54.590Z,95.20
2022-08-30T11:13:24.227Z,94.90
2022-08-30T11:16:01.042Z,95.00
2022-08-30T11:18:31.455Z,94.80
2022-08-30T11:21:18.330Z,94.80
2022-08-30T11:23:59.281Z,94.70
2022-08-30T11:26:54.669Z,94.50
2022-08-30T11:29:37.494Z,94.40
2022-08-30T11:32:24.838Z,94.20
2022-08-30T11:35:00.917Z,94.30
2022-08-30T11:37:35.879Z,94.20
2022-08-30T11:40:07.744Z,94.10
2022-08-30T11:42:44.941Z,94.30
2022-08-30T11:45:48.504Z,94.40
2022-08-30T11:48:53.671Z,94.50
2022-08-30T11:52:08.311Z,94.50
2022-08-30T11:54:52.775Z,94.40
2022-08-30T11:57:25.313Z,94.50
2022-08-30T11:59:59.005Z,94.50
2022-08-30T12:02:44.671Z,94.30
2022-08-30T12:05:48.128Z,94.30
2022-08-30T12:08:44.803Z,94.10
2022-08-30T12:11:53.508Z,94.10
2022-08-30T12:14:54.550Z,94.10
2022-08-30T12:17:59.708Z,94.10
2022-08-30T12:20:32.225Z,94.00
2022-08-30T12:23:01.887Z,94.20
2022-08-30T12:25:33.489Z,94.10
2022-08-30T12:28:12.769Z,94.20
2022-08-30T12:30:41.288Z,93.90
2022-08-30T12:33:12.019Z,93.90
2022-08-30T12:35:40.363Z,94.00
2022-08-30T12:38:18.376Z,93.90
2022-08-30T12:40:52.680Z,94.00
2022-08-30T12:43:26.788Z,93.90
2022-08-30T12:45:55.290Z,93.90
2022-08-30T12:48:25.650Z,93.90
2022-08-30T12:50:55.338Z,93.60
2022-08-30T12:53:26.603Z,93.90
2022-08-30T12:56:00.349Z,93.90
2022-08-30T12:58:41.503Z,94.00
2022-08-30T13:01:19.389Z,94.10
2022-08-30T13:04:00.047Z,94.00
2022-08-30T13:06:44.212Z,94.00
2022-08-30T13:09:22.279Z,94.10
2022-08-30T13:11:52.235Z,94.20
2022-08-30T13:14:33.921Z,94.20
2022-08-30T13:17:21.256Z,94.20
2022-08-30T13:20:05.364Z,94.20
2022-08-30T13:22:34.604Z,94.20
2022-08-30T13:25:03.125Z,94.10
2022-08-30T13:27:37.014Z,94.10
2022-08-30T13:30:08.637Z,94.10
2022-08-30T13:32:42.039Z,94.10
2022-08-30T13:35:10.730Z,94.00
2022-08-30T13:37:49.554Z,93.90
2022-08-30T13:40:20.083Z,94.40
2022-08-30T13:42:50.176Z,94.10
2022-08-30T13:48:10.326Z,94.00
2022-08-30T13:50:38.831Z,94.20
2022-08-30T13:53:08.971Z,94.10
2022-08-30T13:55:37.579Z,94.00
2022-08-30T13:58:07.545Z,94.10
2022-08-30T14:00:38.180Z,94.20
2022-08-30T14:03:06.851Z,94.30
2022-08-30T14:06:09.966Z,93.80
2022-08-30T14:11:16.017Z,93.80
2022-08-30T14:16:37.492Z,93.80
2022-08-30T14:19:05.940Z,93.90
2022-08-30T14:21:35.836Z,93.80
2022-08-30T14:24:07.766Z,93.80
2022-08-30T14:26:37.134Z,93.80
2022-08-30T14:29:08.890Z,93.80
2022-08-30T14:31:37.721Z,93.90
2022-08-30T14:34:06.425Z,93.80
2022-08-30T14:36:35.338Z,94.00
2022-08-30T14:39:06.239Z,94.00
2022-08-30T14:41:41.278Z,94.00
2022-08-30T14:44:13.112Z,94.00
2022-08-30T14:46:41.738Z,94.00
2022-08-30T14:49:11.208Z,94.00
2022-08-30T14:51:39.908Z,94.00
2022-08-30T14:54:08.698Z,94.00
2022-08-30T14:56:37.828Z,94.00
2022-08-30T14:59:06.150Z,94.10
2022-08-30T15:01:38.538Z,94.00
2022-08-30T15:04:07.250Z,94.00
2022-08-30T15:06:35.890Z,94.00
2022-08-30T15:09:04.830Z,94.10
2022-08-30T15:11:33.299Z,94.10
2022-08-30T15:14:01.681Z,93.90
2022-08-30T15:16:31.670Z,94.00
2022-08-30T15:19:02.070Z,93.90
2022-08-30T15:21:31.558Z,93.90
2022-08-30T15:24:00.805Z,93.80
2022-08-30T15:26:29.271Z,93.80
2022-08-30T15:28:57.552Z,94.10
2022-08-30T15:31:28.305Z,93.80
2022-08-30T15:33:56.824Z,93.60
2022-08-30T15:36:26.598Z,93.70
2022-08-30T15:38:55.669Z,93.70
2022-08-30T15:41:24.136Z,93.70
2022-08-30T15:43:52.762Z,93.70
2022-08-30T15:46:23.438Z,93.60
2022-08-30T15:48:59.423Z,93.70
2022-08-30T15:51:29.012Z,93.70
2022-08-30T15:53:59.224Z,93.70
2022-08-30T15:56:27.538Z,93.70
2022-08-30T15:58:55.834Z,93.60
2022-08-30T16:01:30.553Z,93.70
2022-08-30T16:03:59.505Z,93.70
2022-08-30T16:06:31.050Z,93.60
2022-08-30T16:09:00.130Z,93.70
2022-08-30T16:11:28.725Z,93.50
2022-08-30T16:13:57.510Z,93.60
2022-08-30T16:16:26.044Z,93.50
2022-08-30T16:18:55.300Z,93.50
2022-08-30T16:21:25.106Z,93.50
2022-08-30T16:23:55.235Z,93.80
2022-08-30T16:26:23.658Z,93.50
2022-08-30T16:28:52.003Z,93.40
2022-08-30T16:31:21.079Z,93.50
2022-08-30T16:33:52.404Z,93.50
2022-08-30T16:36:21.462Z,93.40
2022-08-30T16:38:53.533Z,93.80
2022-08-30T16:41:27.173Z,93.40
2022-08-30T16:43:55.452Z,93.30
2022-08-30T16:46:27.532Z,93.30
2022-08-30T16:48:56.981Z,93.40
2022-08-30T16:51:26.895Z,93.40
2022-08-30T16:53:55.625Z,93.40
2022-08-30T16:56:25.119Z,93.40
2022-08-30T16:59:02.648Z,93.20
2022-08-30T17:01:32.038Z,93.30
2022-08-30T17:04:00.642Z,93.30
2022-08-30T17:06:29.035Z,93.40
2022-08-30T17:08:57.499Z,93.40
2022-08-30T17:11:25.781Z,93.20
2022-08-30T17:13:54.413Z,93.20
2022-08-30T17:16:28.175Z,93.30
2022-08-30T17:19:00.048Z,93.30
2022-08-30T17:21:29.428Z,93.30
2022-08-30T17:24:01.622Z,93.20
2022-08-30T17:26:31.646Z,93.30
2022-08-30T17:29:00.096Z,93.20
2022-08-30T17:31:30.853Z,93.30
2022-08-30T17:34:02.972Z,93.20
2022-08-30T17:36:36.267Z,93.60
2022-08-30T17:39:10.446Z,93.20
2022-08-30T17:41:40.086Z,93.20
2022-08-30T17:44:13.926Z,93.20
2022-08-30T17:46:43.658Z,93.20
2022-08-30T17:49:12.006Z,93.20
2022-08-30T17:51:42.688Z,93.10
2022-08-30T17:54:11.926Z,93.10
2022-08-30T17:56:40.401Z,93.20
2022-08-30T17:59:09.071Z,93.20
2022-08-30T18:01:37.997Z,93.20
2022-08-30T18:04:07.686Z,93.20
2022-08-30T18:06:36.071Z,93.20
2022-08-30T18:09:04.769Z,93.20
2022-08-30T18:11:35.951Z,93.10
2022-08-30T18:14:04.532Z,93.20
2022-08-30T18:16:33.589Z,93.30
2022-08-30T18:19:03.993Z,93.20
2022-08-30T18:21:35.010Z,93.20
2022-08-30T18:24:03.821Z,93.20
2022-08-30T18:26:32.791Z,93.20
2022-08-30T18:29:02.084Z,93.30
2022-08-30T18:31:30.619Z,93.30
2022-08-30T18:34:00.268Z,93.20
2022-08-30T18:36:28.635Z,93.30
2022-08-30T18:38:58.270Z,93.30
2022-08-30T18:41:28.570Z,93.40
2022-08-30T18:44:11.264Z,93.30
2022-08-30T18:46:55.927Z,93.20
2022-08-30T18:49:34.922Z,93.30
2022-08-30T18:52:04.065Z,93.30
2022-08-30T18:54:33.922Z,93.30
2022-08-30T18:57:02.217Z,93.40
2022-08-30T18:59:36.513Z,93.40
2022-08-30T19:02:05.971Z,93.50
2022-08-30T19:04:35.474Z,93.80
2022-08-30T19:07:05.098Z,93.60
2022-08-30T19:09:34.745Z,93.60
2022-08-30T19:12:03.275Z,93.80
2022-08-30T19:14:36.115Z,93.50
2022-08-30T19:17:07.053Z,93.40
2022-08-30T19:19:37.347Z,93.40
2022-08-30T19:22:18.931Z,93.50
2022-08-30T19:27:39.973Z,93.70
2022-08-30T19:30:09.979Z,93.80
2022-08-30T19:32:38.291Z,93.90
2022-08-30T19:35:08.346Z,94.00
2022-08-30T19:37:36.742Z,94.00
2022-08-30T19:40:07.591Z,94.10
2022-08-30T19:42:40.546Z,94.20
2022-08-30T19:45:17.646Z,94.20
2022-08-30T19:47:46.747Z,94.20
2022-08-30T19:50:15.582Z,94.30
2022-08-30T19:52:44.589Z,94.30
2022-08-30T19:55:16.422Z,94.40
2022-08-30T19:57:44.909Z,94.50
2022-08-30T20:00:17.570Z,94.60
2022-08-30T20:02:50.843Z,94.70
2022-08-30T20:05:21.363Z,94.70
2022-08-30T20:07:51.186Z,94.70
2022-08-30T20:10:25.829Z,94.80
2022-08-30T20:12:54.475Z,94.80
2022-08-30T20:15:22.991Z,94.90
2022-08-30T20:18:05.108Z,94.90
2022-08-30T20:20:36.217Z,94.90
2022-08-30T20:23:05.974Z,94.90
2022-08-30T20:25:36.884Z,94.90
2022-08-30T20:28:05.243Z,94.90
2022-08-30T20:30:34.522Z,95.00
2022-08-30T20:33:07.085Z,95.00
2022-08-30T20:35:38.276Z,94.90
2022-08-30T20:38:06.981Z,95.00
2022-08-30T20:40:37.034Z,95.00
2022-08-30T20:43:05.549Z,94.90
2022-08-30T20:45:34.375Z,95.00
2022-08-30T20:48:03.105Z,95.00
2022-08-30T20:50:31.487Z,95.10
2022-08-30T20:52:59.801Z,95.20
2022-08-30T20:55:28.174Z,95.30
2022-08-30T20:57:57.833Z,95.30
2022-08-30T21:00:26.495Z,95.40
2022-08-30T21:02:55.025Z,95.40
2022-08-30T21:05:23.601Z,95.50
2022-08-30T21:07:51.944Z,95.60
2022-08-30T21:10:23.435Z,95.60
2022-08-30T21:12:51.980Z,95.60
2022-08-30T21:15:38.560Z,95.70
2022-08-30T21:18:07.017Z,95.70
2022-08-30T21:20:35.926Z,95.80
2022-08-30T21:23:04.221Z,95.90
2022-08-30T21:25:34.044Z,95.90
2022-08-30T21:28:02.500Z,95.90
2022-08-30T21:30:32.214Z,96.00
2022-08-30T21:33:00.723Z,96.00
2022-08-30T21:35:46.706Z,96.10
2022-08-30T21:38:15.103Z,96.10
2022-08-30T21:40:43.475Z,96.30
2022-08-30T21:43:11.861Z,96.40
2022-08-30T21:45:41.767Z,96.50
2022-08-30T21:48:10.425Z,96.40
2022-08-30T21:50:39.753Z,96.50
2022-08-30T21:53:08.050Z,96.50
2022-08-30T21:55:36.682Z,96.60
2022-08-30T21:58:09.895Z,96.90
2022-08-30T22:00:40.602Z,97.20
2022-08-30T22:03:10.399Z,97.30
2022-08-30T22:05:38.734Z,97.50
2022-08-30T22:08:07.041Z,97.40
2022-08-30T22:10:35.494Z,97.30
2022-08-30T22:13:03.809Z,97.10
2022-08-30T22:15:32.255Z,96.90
2022-08-30T22:18:00.587Z,96.70
2022-08-30T22:20:30.612Z,96.60
2022-08-30T22:22:59.160Z,96.50
2022-08-30T22:25:27.529Z,96.40
2022-08-30T22:27:58.233Z,96.30
2022-08-30T22:30:26.522Z,96.30
2022-08-30T22:32:58.253Z,96.20
2022-08-30T22:35:26.514Z,96.10
2022-08-30T22:38:02.761Z,96.10
2022-08-30T22:40:31.540Z,96.00
2022-08-30T22:43:02.796Z,96.10
2022-08-30T22:45:31.347Z,96.10
2022-08-30T22:47:59.647Z,96.30
2022-08-30T22:50:27.941Z,96.30
2022-08-30T22:52:57.571Z,95.90
2022-08-30T22:55:28.823Z,95.90
2022-08-30T22:57:57.219Z,95.90
2022-08-30T23:00:25.719Z,95.90
2022-08-30T23:02:54.230Z,95.90
2022-08-30T23:05:24.922Z,95.80
2022-08-30T23:07:53.416Z,95.80
2022-08-30T23:10:27.955Z,95.80
2022-08-30T23:12:56.425Z,95.80
2022-08-30T23:15:24.716Z,95.70
2022-08-30T23:17:54.660Z,95.70
2022-08-30T23:20:23.104Z,95.70
2022-08-30T23:22:58.079Z,95.70
2022-08-30T23:25:46.100Z,95.70
2022-08-30T23:28:39.239Z,95.70
2022-08-30T23:31:29.544Z,95.70
2022-08-30T23:34:17.777Z,95.70
2022-08-30T23:37:03.836Z,95.60
2022-08-30T23:39:49.654Z,95.60
2022-08-30T23:42:37.090Z,95.60
2022-08-30T23:45:23.984Z,95.60
2022-08-30T23:48:10.111Z,95.60
2022-08-30T23:50:55.997Z,95.60
2022-08-30T23:53:43.757Z,95.60
2022-08-30T23:56:29.978Z,95.60
2022-08-30T23:59:17.146Z,95.60
